Weather History for Kill Devil Hills, NC

Change the Weather History Date:

Sunday, December 30, 2012

  Actual Average (KMQI) Record (KMQI)
Temperature  
Mean Temperature 40 °F -  
Max Temperature 43 °F 49 °F 75 °F (1971)
Min Temperature 38 °F 36 °F 21 °F (2001)
Degree Days  
Heating Degree Days 24    
Moisture  
Dew Point 25 °F    
Average Humidity 54    
Maximum Humidity 71    
Minimum Humidity 39    
Precipitation  
Precipitation 0.00 in - - ()
Sea Level Pressure  
Sea Level Pressure 30.14 in    
Wind  
Wind Speed 11 mph (WNW)    
Max Wind Speed 15 mph    
Max Gust Speed 26 mph    
Visibility 10 miles    
Events      
Averages and records for this station are not official NWS values.
T = Trace of Precipitation, MM = Missing Value Source: NWS Daily Summary

Daily Weather History Graph

Daily Weather History Graph

Search for Another Location

Airport:

Trip Planner

Search our weather history database for the weather conditions in past years. The results will help you decide how hot, cold, wet, or windy it might be!

Date:

Astronomy

Dec. 30, 2012 Rise Set
Actual Time 7:13 AM EST 4:58 PM EST
Civil Twilight 6:44 AM EST 5:26 PM EST
Nautical Twilight 6:12 AM EST 5:58 PM EST
Astronomical Twilight 5:41 AM EST 6:29 PM EST
Moon 7:22 PM EST (12/30) 8:24 AM EST (12/30)
Length of Visible Light 10h 42m
Length of Day
9h 45m
Waning Gibbous, 95% of the Moon is Illuminated
Dec 30
Waning Gibbous
Jan 4
Last Quarter
Jan 11
New
Jan 18
First Quarter
Jan 26
Full

Hourly Weather History & Observations

Time (EST) Temp. Windchill Dew Point Humidity Pressure Visibility Wind Dir Wind Speed Gust Speed Precip Events Conditions
12:15 AM 42.1 °F 36.1 °F 32.0 °F 67% 29.81 in 10.0 mi WNW 10.4 mph 20.7 mph N/A   Clear
12:35 AM 41.5 °F 35.0 °F 32.0 °F 69% 29.81 in 10.0 mi WNW 11.5 mph 20.7 mph N/A   Clear
12:55 AM 41.4 °F 34.7 °F 32.0 °F 69% 29.82 in 10.0 mi WNW 11.5 mph 19.6 mph N/A   Clear
1:15 AM 41.2 °F 34.5 °F 31.5 °F 68% 29.83 in 10.0 mi WNW 11.5 mph 21.9 mph N/A   Clear
1:35 AM 41.0 °F 34.7 °F 31.3 °F 68% 29.85 in 10.0 mi WNW 10.4 mph 21.9 mph N/A   Clear
1:55 AM 40.8 °F 34.1 °F 30.9 °F 68% 29.86 in 10.0 mi WNW 11.5 mph 24.2 mph N/A   Clear
2:15 AM 40.3 °F 34.4 °F 30.6 °F 68% 29.87 in 10.0 mi NW 9.2 mph 21.9 mph N/A   Clear
2:35 AM 40.1 °F 34.1 °F 30.2 °F 68% 29.88 in 10.0 mi WNW 9.2 mph 17.3 mph N/A   Clear
2:55 AM 39.7 °F 32.3 °F 29.8 °F 68% 29.90 in 10.0 mi WNW 12.7 mph 17.3 mph N/A   Clear
3:15 AM 39.6 °F 32.5 °F 29.5 °F 67% 29.91 in 10.0 mi WNW 11.5 mph 18.4 mph N/A   Clear
3:35 AM 39.6 °F 32.5 °F 29.3 °F 67% 29.92 in 10.0 mi NW 11.5 mph 18.4 mph N/A   Clear
3:55 AM 39.4 °F 32.7 °F 28.8 °F 66% 29.93 in 10.0 mi WNW 10.4 mph 18.4 mph N/A   Clear
4:15 AM 39.2 °F 33.0 °F 29.7 °F 69% 29.94 in 10.0 mi WNW 9.2 mph 16.1 mph N/A   Clear
4:35 AM 39.2 °F 31.6 °F 30.6 °F 71% 29.95 in 10.0 mi WNW 12.7 mph 24.2 mph N/A   Clear
4:55 AM 39.2 °F 32.5 °F 29.8 °F 69% 29.96 in 10.0 mi WNW 10.4 mph 21.9 mph N/A   Clear
5:15 AM 39.0 °F 31.8 °F 29.7 °F 69% 29.97 in 10.0 mi WNW 11.5 mph 19.6 mph N/A   Clear
5:35 AM 38.8 °F 30.8 °F 29.3 °F 69% 29.98 in 10.0 mi WNW 13.8 mph 23.0 mph N/A   Clear
5:55 AM 38.5 °F 30.7 °F 28.9 °F 69% 30.00 in 10.0 mi WNW 12.7 mph 21.9 mph N/A   Clear
8:35 AM 38.8 °F 31.6 °F 26.1 °F 60% 30.11 in 10.0 mi WNW 11.5 mph 24.2 mph N/A   Clear
8:55 AM 39.2 °F 31.6 °F 25.9 °F 59% 30.12 in 10.0 mi WNW 12.7 mph 21.9 mph N/A   Clear
9:15 AM 39.4 °F 31.1 °F 25.3 °F 57% 30.13 in 10.0 mi WNW 15.0 mph 24.2 mph N/A   Clear
9:35 AM 39.6 °F 32.5 °F 24.8 °F 56% 30.15 in 10.0 mi NW 11.5 mph 25.3 mph N/A   Clear
9:55 AM 40.1 °F 33.2 °F 24.4 °F 54% 30.16 in 10.0 mi NW 11.5 mph 24.2 mph N/A   Clear
10:15 AM 40.6 °F 33.0 °F 24.6 °F 53% 30.17 in 10.0 mi WNW 13.8 mph 25.3 mph N/A   Clear
10:35 AM 41.0 °F 33.9 °F 24.1 °F 51% 30.17 in 10.0 mi NW 12.7 mph 23.0 mph N/A   Clear
10:55 AM 41.4 °F 34.3 °F 23.9 °F 50% 30.18 in 10.0 mi WNW 12.7 mph 25.3 mph N/A   Clear
11:15 AM 41.7 °F 35.6 °F 23.9 °F 49% 30.17 in 10.0 mi WNW 10.4 mph 25.3 mph N/A   Clear
11:35 AM 42.1 °F 34.9 °F 22.8 °F 46% 30.17 in 10.0 mi WNW 13.8 mph 24.2 mph N/A   Clear
11:55 AM 42.4 °F 36.1 °F 22.8 °F 46% 30.17 in 10.0 mi NW 11.5 mph 23.0 mph N/A   Clear
12:15 PM 42.8 °F 35.8 °F 21.9 °F 44% 30.16 in 10.0 mi WNW 13.8 mph 23.0 mph N/A   Clear
12:35 PM 42.8 °F 35.8 °F 20.8 °F 42% 30.17 in 10.0 mi NW 13.8 mph 21.9 mph N/A   Clear
12:55 PM 43.3 °F 37.2 °F 21.7 °F 42% 30.17 in 10.0 mi NW 11.5 mph 26.5 mph N/A   Scattered Clouds
1:15 PM 43.0 °F 36.0 °F 20.7 °F 41% 30.18 in 10.0 mi NW 13.8 mph 25.3 mph N/A   Scattered Clouds
1:35 PM 43.0 °F 36.4 °F 20.3 °F 40% 30.18 in 10.0 mi WNW 12.7 mph 19.6 mph N/A   Scattered Clouds
1:55 PM 43.2 °F 37.4 °F 21.0 °F 41% 30.18 in 10.0 mi NW 10.4 mph 20.7 mph N/A   Scattered Clouds
2:15 PM 43.5 °F 37.1 °F 20.7 °F 40% 30.19 in 10.0 mi WNW 12.7 mph 19.6 mph N/A   Scattered Clouds
2:35 PM 43.7 °F 37.3 °F 20.3 °F 39% 30.19 in 10.0 mi NW 12.7 mph 19.6 mph N/A   Scattered Clouds
2:55 PM 43.5 °F 37.5 °F 20.1 °F 39% 30.20 in 10.0 mi WNW 11.5 mph 24.2 mph N/A   Clear
3:15 PM 43.2 °F 36.2 °F 20.1 °F 40% 30.21 in 10.0 mi WNW 13.8 mph 19.6 mph N/A   Clear
3:35 PM 43.0 °F 36.4 °F 20.5 °F 41% 30.22 in 10.0 mi West 12.7 mph 20.7 mph N/A   Clear
3:55 PM 42.6 °F 36.8 °F 20.8 °F 42% 30.24 in 10.0 mi West 10.4 mph 20.7 mph N/A   Clear
4:15 PM 42.6 °F 37.8 °F 20.7 °F 42% 30.24 in 10.0 mi WNW 8.1 mph 19.6 mph N/A   Clear
4:35 PM 42.1 °F 35.7 °F 21.0 °F 43% 30.25 in 10.0 mi WNW 11.5 mph 19.6 mph N/A   Clear
4:55 PM 41.5 °F 36.4 °F 22.1 °F 46% 30.26 in 10.0 mi WNW 8.1 mph - N/A   Clear
5:15 PM 41.2 °F 36.0 °F 22.3 °F 47% 30.27 in 10.0 mi WNW 8.1 mph - N/A   Clear
5:35 PM 41.0 °F 35.2 °F 22.6 °F 48% 30.27 in 10.0 mi WNW 9.2 mph 17.3 mph N/A   Clear
5:55 PM 40.6 °F 34.8 °F 22.3 °F 48% 30.28 in 10.0 mi WNW 9.2 mph - N/A   Clear
6:15 PM 40.3 °F 36.3 °F 22.1 °F 48% 30.29 in 10.0 mi WNW 5.8 mph - N/A   Clear
6:35 PM 39.7 °F 36.5 °F 21.9 °F 49% 30.28 in 10.0 mi NW 4.6 mph - N/A   Clear
6:55 PM 39.4 °F 36.1 °F 22.6 °F 51% 30.29 in 10.0 mi WNW 4.6 mph - N/A   Clear
7:15 PM 39.2 °F 37.0 °F 23.9 °F 54% 30.30 in 10.0 mi WNW 3.5 mph - N/A   Clear
7:35 PM 39.2 °F 37.0 °F 24.3 °F 55% 30.30 in 10.0 mi NW 3.5 mph - N/A   Clear
7:55 PM 39.0 °F 35.7 °F 25.0 °F 57% 30.30 in 10.0 mi West 4.6 mph - N/A   Clear
8:15 PM 39.2 °F 34.2 °F 25.2 °F 57% 30.30 in 10.0 mi WNW 6.9 mph - N/A   Clear
8:35 PM 39.7 °F 34.9 °F 25.0 °F 56% 30.31 in 10.0 mi WNW 6.9 mph - N/A   Clear
8:55 PM 39.9 °F 34.5 °F 24.8 °F 55% 30.31 in 10.0 mi WNW 8.1 mph - N/A   Clear
9:15 PM 40.3 °F 36.3 °F 24.6 °F 54% 30.32 in 10.0 mi WNW 5.8 mph - N/A   Clear
9:35 PM 40.5 °F 34.6 °F 23.9 °F 52% 30.32 in 10.0 mi West 9.2 mph - N/A   Clear
9:55 PM 40.6 °F 35.4 °F 23.7 °F 51% 30.33 in 10.0 mi West 8.1 mph 17.3 mph N/A   Clear
10:15 PM 40.5 °F 34.6 °F 24.1 °F 52% 30.33 in 10.0 mi West 9.2 mph 16.1 mph N/A   Clear
10:35 PM 40.5 °F 34.1 °F 24.6 °F 53% 30.34 in 10.0 mi WNW 10.4 mph - N/A   Clear
10:55 PM 40.6 °F 35.4 °F 24.3 °F 52% 30.34 in 10.0 mi WNW 8.1 mph 18.4 mph N/A   Clear
11:15 PM 40.8 °F 34.5 °F 24.6 °F 53% 30.34 in 10.0 mi WNW 10.4 mph 16.1 mph N/A   Clear
11:35 PM 40.6 °F 35.4 °F 24.6 °F 53% 30.34 in 10.0 mi WNW 8.1 mph - N/A   Clear
11:55 PM 40.1 °F 35.3 °F 24.4 °F 54% 30.33 in 10.0 mi WNW 6.9 mph - N/A   Clear